createdAt,value
2017-11-04T00:02:16.565Z,97803.28
2017-11-04T00:04:44.058Z,97802.06
2017-11-04T00:07:11.567Z,97801.45
2017-11-04T00:09:39.081Z,97807.09
2017-11-04T00:12:06.575Z,97810.85
2017-11-04T00:14:37.367Z,97802.67
2017-11-04T00:17:04.866Z,97807.11
2017-11-04T00:19:32.362Z,97811.60
2017-11-04T00:21:59.854Z,97810.06
2017-11-04T00:24:27.364Z,97812.77
2017-11-04T00:26:54.967Z,97808.04
2017-11-04T00:29:22.489Z,97807.63
2017-11-04T00:31:49.989Z,97810.30
2017-11-04T00:34:17.503Z,97808.59
2017-11-04T00:36:45.051Z,97798.16
2017-11-04T00:39:12.565Z,97801.62
2017-11-04T00:41:40.071Z,97798.06
2017-11-04T00:44:07.584Z,97796.02
2017-11-04T00:46:35.088Z,97805.43
2017-11-04T00:49:02.590Z,97794.70
2017-11-04T00:51:30.113Z,97794.94
2017-11-04T00:53:57.611Z,97793.31
2017-11-04T00:56:25.124Z,97788.16
2017-11-04T00:58:52.617Z,97785.35
2017-11-04T01:01:20.121Z,97782.91
2017-11-04T01:03:47.642Z,97786.50
2017-11-04T01:06:15.147Z,97782.77
2017-11-04T01:08:42.663Z,97784.77
2017-11-04T01:11:10.176Z,97784.59
2017-11-04T01:13:37.748Z,97786.12
2017-11-04T01:16:05.262Z,97789.14
2017-11-04T01:18:32.776Z,97798.03
2017-11-04T01:21:00.277Z,97792.92
2017-11-04T01:23:27.856Z,97793.15
2017-11-04T01:25:55.359Z,97790.25
2017-11-04T01:28:22.877Z,97789.67
2017-11-04T01:30:50.397Z,97784.59
2017-11-04T01:33:17.904Z,97788.49
2017-11-04T01:35:45.442Z,97783.27
2017-11-04T01:38:12.935Z,97779.31
2017-11-04T01:40:40.452Z,97783.79
2017-11-04T01:43:07.966Z,97781.88
2017-11-04T01:45:35.499Z,97779.03
2017-11-04T01:48:02.993Z,97784.90
2017-11-04T01:50:30.511Z,97780.81
2017-11-04T01:52:58.048Z,97780.61
2017-11-04T01:55:25.550Z,97772.23
2017-11-04T01:57:53.075Z,97770.63
2017-11-04T02:00:20.938Z,97773.52
2017-11-04T02:02:48.438Z,97773.61
2017-11-04T02:05:15.949Z,97775.95
2017-11-04T02:07:43.459Z,97770.42
2017-11-04T02:10:11.014Z,97766.66
2017-11-04T02:12:38.626Z,97763.68
2017-11-04T02:15:06.184Z,97767.56
2017-11-04T02:17:33.932Z,97766.30
2017-11-04T02:20:01.453Z,97757.66
2017-11-04T02:22:28.940Z,97766.41
2017-11-04T02:24:56.443Z,97763.68
2017-11-04T02:27:23.955Z,97763.13
2017-11-04T02:29:51.477Z,97764.77
2017-11-04T02:32:18.976Z,97753.37
2017-11-04T02:34:46.485Z,97750.00
2017-11-04T02:37:14.010Z,97761.42
2017-11-04T02:39:41.532Z,97763.80
2017-11-04T02:42:09.079Z,97753.16
2017-11-04T02:44:36.577Z,97754.70
2017-11-04T02:47:04.079Z,97751.22
2017-11-04T02:49:31.566Z,97748.23
2017-11-04T02:51:59.057Z,97734.27
2017-11-04T02:54:26.604Z,97740.22
2017-11-04T02:56:54.108Z,97741.73
2017-11-04T02:59:21.613Z,97737.41
2017-11-04T03:01:49.115Z,97739.89
2017-11-04T03:04:16.615Z,97736.44
2017-11-04T03:06:44.128Z,97730.73
2017-11-04T03:09:11.622Z,97731.28
2017-11-04T03:11:39.137Z,97723.80
2017-11-04T03:14:06.647Z,97721.78
2017-11-04T03:16:34.177Z,97717.31
2017-11-04T03:19:01.691Z,97720.04
2017-11-04T03:21:29.178Z,97717.02
2017-11-04T03:23:56.675Z,97716.00
2017-11-04T03:26:24.185Z,97708.95
2017-11-04T03:28:51.699Z,97723.67
2017-11-04T03:31:19.201Z,97720.27
2017-11-04T03:33:46.703Z,97715.89
2017-11-04T03:36:14.211Z,97715.55
2017-11-04T03:38:41.710Z,97721.11
2017-11-04T03:41:09.236Z,97716.22
2017-11-04T03:43:36.751Z,97721.08
2017-11-04T03:46:04.241Z,97721.31
2017-11-04T03:48:31.773Z,97723.42
2017-11-04T03:50:59.290Z,97726.38
2017-11-04T03:53:26.805Z,97717.56
2017-11-04T03:55:54.323Z,97724.70
2017-11-04T03:58:21.834Z,97718.16
2017-11-04T04:00:49.359Z,97711.02
2017-11-04T04:03:16.866Z,97711.30
2017-11-04T04:05:44.390Z,97707.70
2017-11-04T04:08:11.943Z,97706.67
2017-11-04T04:10:39.451Z,97704.44
2017-11-04T04:13:07.060Z,97703.64
2017-11-04T04:15:34.571Z,97711.27
2017-11-04T04:18:02.074Z,97706.38
2017-11-04T04:20:29.590Z,97711.13
2017-11-04T04:22:57.268Z,97710.34
2017-11-04T04:25:24.768Z,97704.34
2017-11-04T04:27:52.280Z,97708.15
2017-11-04T04:30:19.774Z,97714.06
2017-11-04T04:32:47.257Z,97713.17
2017-11-04T04:35:14.766Z,97702.66
2017-11-04T04:37:42.279Z,97702.19
2017-11-04T04:40:10.172Z,97711.14
2017-11-04T04:42:37.675Z,97697.22
2017-11-04T04:45:05.183Z,97699.33
2017-11-04T04:47:32.691Z,97694.00
2017-11-04T04:50:00.190Z,97685.16
2017-11-04T04:52:27.688Z,97692.47
2017-11-04T04:54:55.187Z,97682.37
2017-11-04T04:57:22.674Z,97692.80
2017-11-04T04:59:50.315Z,97689.64
2017-11-04T05:02:17.823Z,97694.69
2017-11-04T05:04:45.337Z,97688.30
2017-11-04T05:07:12.852Z,97692.19
2017-11-04T05:09:40.361Z,97694.23
2017-11-04T05:12:07.877Z,97697.68
2017-11-04T05:14:35.382Z,97697.91
2017-11-04T05:17:02.878Z,97690.69
2017-11-04T05:19:30.399Z,97685.77
2017-11-04T05:21:57.907Z,97681.69
2017-11-04T05:24:25.417Z,97683.98
2017-11-04T05:26:52.923Z,97681.84
2017-11-04T05:29:20.448Z,97682.44
2017-11-04T05:31:47.954Z,97684.64
2017-11-04T05:34:15.451Z,97679.05
2017-11-04T05:36:42.953Z,97696.00
2017-11-04T05:39:10.468Z,97693.59
2017-11-04T05:41:37.979Z,97680.09
2017-11-04T05:44:05.491Z,97684.61
2017-11-04T05:46:32.992Z,97696.38
2017-11-04T05:49:00.499Z,97690.66
2017-11-04T05:51:28.009Z,97689.60
2017-11-04T05:53:55.530Z,97687.31
2017-11-04T05:56:23.039Z,97688.02
2017-11-04T05:58:50.560Z,97685.93
2017-11-04T06:01:18.084Z,97684.97
2017-11-04T06:03:45.597Z,97683.59
2017-11-04T06:06:13.125Z,97684.72
2017-11-04T06:08:40.662Z,97682.33
2017-11-04T06:11:08.155Z,97680.45
2017-11-04T06:13:35.650Z,97671.38
2017-11-04T06:16:03.157Z,97682.45
2017-11-04T06:18:30.675Z,97680.17
2017-11-04T06:20:58.176Z,97676.41
2017-11-04T06:23:25.675Z,97687.52
2017-11-04T06:25:53.231Z,97686.86
2017-11-04T06:28:20.723Z,97696.61
2017-11-04T06:30:49.238Z,97695.23
2017-11-04T06:33:16.785Z,97690.75
2017-11-04T06:35:44.283Z,97693.73
2017-11-04T06:38:11.904Z,97689.73
2017-11-04T06:40:39.419Z,97684.55
2017-11-04T06:43:06.927Z,97693.08
2017-11-04T06:45:34.449Z,97691.98
2017-11-04T06:48:01.966Z,97689.56
2017-11-04T06:50:29.466Z,97690.52
2017-11-04T06:52:56.979Z,97692.84
2017-11-04T06:55:24.483Z,97696.45
2017-11-04T06:57:51.998Z,97693.80
2017-11-04T07:00:19.504Z,97690.21
2017-11-04T07:02:47.013Z,97688.05
2017-11-04T07:05:14.512Z,97700.27
2017-11-04T07:07:42.010Z,97698.01
2017-11-04T07:10:09.531Z,97694.77
2017-11-04T07:12:37.026Z,97691.43
2017-11-04T07:15:04.572Z,97694.11
2017-11-04T07:17:32.089Z,97692.91
2017-11-04T07:19:59.602Z,97708.30
2017-11-04T07:22:27.106Z,97697.47
2017-11-04T07:24:54.608Z,97689.67
2017-11-04T07:27:22.126Z,97698.45
2017-11-04T07:29:49.615Z,97695.12
2017-11-04T07:32:17.154Z,97674.16
2017-11-04T07:34:44.683Z,97692.51
2017-11-04T07:37:12.184Z,97678.13
2017-11-04T07:39:39.755Z,97681.91
2017-11-04T07:42:07.257Z,97682.67
2017-11-04T07:44:34.791Z,97683.94
2017-11-04T07:47:02.294Z,97675.98
2017-11-04T07:49:29.800Z,97682.47
2017-11-04T07:51:57.293Z,97689.41
2017-11-04T07:54:24.798Z,97695.34
2017-11-04T07:56:52.327Z,97686.90
2017-11-04T07:59:19.835Z,97699.27
2017-11-04T08:01:47.347Z,97700.47
2017-11-04T08:04:14.848Z,97710.74
2017-11-04T08:06:42.377Z,97705.62
2017-11-04T08:09:09.890Z,97702.57
2017-11-04T08:11:37.414Z,97703.04
2017-11-04T08:14:04.962Z,97706.03
2017-11-04T08:16:32.466Z,97704.03
2017-11-04T08:19:00.000Z,97702.02
2017-11-04T08:21:27.529Z,97700.27
2017-11-04T08:23:55.056Z,97697.19
2017-11-04T08:26:22.582Z,97705.80
2017-11-04T08:28:50.231Z,97699.13
2017-11-04T08:31:17.748Z,97686.41
2017-11-04T08:33:48.050Z,97695.03
2017-11-04T08:36:15.593Z,97695.22
2017-11-04T08:38:43.162Z,97698.48
2017-11-04T08:41:14.455Z,97703.22
2017-11-04T08:43:41.965Z,97695.72
2017-11-04T08:46:09.479Z,97698.25
2017-11-04T08:48:37.016Z,97700.05
2017-11-04T08:51:04.532Z,97697.11
2017-11-04T08:53:32.047Z,97695.14
2017-11-04T08:55:59.546Z,97696.64
2017-11-04T08:58:27.044Z,97694.59
2017-11-04T09:00:54.567Z,97690.23
2017-11-04T09:03:22.078Z,97691.30
2017-11-04T09:05:49.570Z,97685.70
2017-11-04T09:08:17.074Z,97692.23
2017-11-04T09:10:44.590Z,97690.07
2017-11-04T09:13:12.099Z,97684.42
2017-11-04T09:15:39.636Z,97682.52
2017-11-04T09:18:07.222Z,97673.70
2017-11-04T09:20:34.732Z,97680.22
2017-11-04T09:23:02.237Z,97680.47
2017-11-04T09:25:29.779Z,97672.77
2017-11-04T09:27:57.297Z,97676.55
2017-11-04T09:30:24.789Z,97687.06
2017-11-04T09:32:52.322Z,97687.27
2017-11-04T09:35:19.837Z,97686.30
2017-11-04T09:37:48.310Z,97687.91
2017-11-04T09:40:15.869Z,97694.02
2017-11-04T09:42:43.423Z,97692.41
2017-11-04T09:45:10.928Z,97694.30
2017-11-04T09:47:38.450Z,97703.10
2017-11-04T09:50:05.994Z,97698.12
2017-11-04T09:52:33.514Z,97696.55
2017-11-04T09:55:01.038Z,97686.20
2017-11-04T09:57:28.576Z,97686.70
2017-11-04T09:59:56.090Z,97688.19
2017-11-04T10:02:23.601Z,97679.23
2017-11-04T10:04:51.115Z,97681.11
2017-11-04T10:07:18.634Z,97677.59
2017-11-04T10:09:46.168Z,97676.69
2017-11-04T10:12:13.689Z,97672.11
2017-11-04T10:14:41.215Z,97676.38
2017-11-04T10:17:08.753Z,97675.02
2017-11-04T10:19:36.276Z,97668.41
2017-11-04T10:22:03.787Z,97672.48
2017-11-04T10:24:31.312Z,97667.64
2017-11-04T10:26:58.916Z,97661.05
2017-11-04T10:29:26.477Z,97663.64
2017-11-04T10:31:53.987Z,97667.73
2017-11-04T10:34:21.528Z,97672.71
2017-11-04T10:36:49.050Z,97660.27
2017-11-04T10:39:16.592Z,97653.51
2017-11-04T10:41:44.123Z,97650.80
2017-11-04T10:44:11.649Z,97651.06
2017-11-04T10:46:39.163Z,97652.22
2017-11-04T10:49:06.683Z,97637.77
2017-11-04T10:51:34.216Z,97636.69
2017-11-04T10:54:01.733Z,97632.31
2017-11-04T10:56:29.253Z,97630.99
2017-11-04T10:58:56.764Z,97620.02
2017-11-04T11:01:24.267Z,97616.06
2017-11-04T11:03:51.818Z,97623.12
2017-11-04T11:06:19.346Z,97620.22
2017-11-04T11:08:46.858Z,97613.33
2017-11-04T11:11:14.360Z,97615.60
2017-11-04T11:13:41.909Z,97606.06
2017-11-04T11:16:09.425Z,97606.72
2017-11-04T11:18:37.037Z,97597.42
2017-11-04T11:21:04.598Z,97600.95
2017-11-04T11:23:32.111Z,97597.60
2017-11-04T11:25:59.628Z,97597.84
2017-11-04T11:28:27.268Z,97591.83
2017-11-04T11:30:54.765Z,97588.86
2017-11-04T11:33:22.395Z,97595.78
2017-11-04T11:35:49.914Z,97584.23
2017-11-04T11:38:17.411Z,97587.87
2017-11-04T11:40:44.924Z,97581.59
2017-11-04T11:43:12.450Z,97583.69
2017-11-04T11:45:39.974Z,97582.52
2017-11-04T11:48:07.489Z,97578.79
2017-11-04T11:50:34.999Z,97580.76
2017-11-04T11:53:02.542Z,97573.78
2017-11-04T11:55:30.069Z,97573.37
2017-11-04T11:57:57.618Z,97574.00
2017-11-04T12:00:25.139Z,97571.88
2017-11-04T12:02:52.656Z,97565.16
2017-11-04T12:05:20.167Z,97564.30
2017-11-04T12:07:47.697Z,97564.77
2017-11-04T12:10:15.226Z,97564.13
2017-11-04T12:12:42.731Z,97563.92
2017-11-04T12:15:10.224Z,97555.89
2017-11-04T12:17:37.756Z,97555.63
2017-11-04T12:20:05.351Z,97557.99
2017-11-04T12:22:32.870Z,97554.63
2017-11-04T12:25:00.393Z,97547.25
2017-11-04T12:27:27.898Z,97539.63
2017-11-04T12:29:55.397Z,97536.83
2017-11-04T12:32:22.920Z,97542.33
2017-11-04T12:34:50.438Z,97536.39
2017-11-04T12:37:17.941Z,97539.27
2017-11-04T12:39:45.443Z,97533.27
2017-11-04T12:42:12.958Z,97533.52
2017-11-04T12:44:40.473Z,97527.79
2017-11-04T12:47:08.083Z,97530.57
2017-11-04T12:49:35.602Z,97525.45
2017-11-04T12:52:03.130Z,97523.11
2017-11-04T12:54:30.630Z,97527.17
2017-11-04T12:56:58.139Z,97514.33
2017-11-04T12:59:25.630Z,97515.97
2017-11-04T13:01:53.194Z,97510.07
2017-11-04T13:04:20.722Z,97508.58
2017-11-04T13:06:48.210Z,97508.91
2017-11-04T13:09:15.714Z,97509.49
2017-11-04T13:11:43.218Z,97515.28
2017-11-04T13:14:10.733Z,97514.16
2017-11-04T13:16:38.259Z,97512.06
2017-11-04T13:19:05.881Z,97514.89
2017-11-04T13:21:33.410Z,97512.23
2017-11-04T13:24:00.931Z,97512.78
2017-11-04T13:26:28.468Z,97507.50
2017-11-04T13:28:55.971Z,97506.02
2017-11-04T13:31:23.481Z,97505.23
2017-11-04T13:33:50.981Z,97496.55
2017-11-04T13:36:18.491Z,97501.65
2017-11-04T13:38:45.994Z,97498.48
2017-11-04T13:41:13.507Z,97506.05
2017-11-04T13:43:41.013Z,97498.49
2017-11-04T13:46:08.530Z,97504.14
2017-11-04T13:48:36.079Z,97503.27
2017-11-04T13:51:03.582Z,97505.77
2017-11-04T13:53:31.111Z,97508.29
2017-11-04T13:55:58.626Z,97510.19
2017-11-04T13:58:26.115Z,97512.70
2017-11-04T14:00:53.602Z,97503.91
2017-11-04T14:03:21.100Z,97503.84
2017-11-04T14:05:48.624Z,97504.02
2017-11-04T14:08:16.154Z,97502.70
2017-11-04T14:10:43.659Z,97504.62
2017-11-04T14:13:11.205Z,97498.19
2017-11-04T14:15:38.711Z,97502.34
2017-11-04T14:18:06.246Z,97505.27
2017-11-04T14:20:33.769Z,97503.59
2017-11-04T14:23:01.275Z,97509.91
2017-11-04T14:25:28.797Z,97506.73
2017-11-04T14:27:56.289Z,97496.59
2017-11-04T14:30:24.216Z,97495.17
2017-11-04T14:32:51.725Z,97488.73
2017-11-04T14:35:19.219Z,97490.11
2017-11-04T14:37:46.713Z,97481.02
2017-11-04T14:40:14.218Z,97492.83
2017-11-04T14:42:41.739Z,97487.78
2017-11-04T14:45:12.713Z,97491.28
2017-11-04T14:47:40.246Z,97490.44
2017-11-04T14:50:07.776Z,97496.36
2017-11-04T14:52:35.288Z,97490.53
2017-11-04T14:55:02.798Z,97493.27
2017-11-04T14:57:30.342Z,97486.20
2017-11-04T14:59:57.881Z,97487.59
2017-11-04T15:02:25.402Z,97488.81
2017-11-04T15:04:52.942Z,97487.07
2017-11-04T15:07:20.444Z,97495.41
2017-11-04T15:09:47.946Z,97495.45
2017-11-04T15:12:15.445Z,97500.79
2017-11-04T15:14:42.942Z,97498.44
2017-11-04T15:17:10.447Z,97490.50
2017-11-04T15:19:37.942Z,97496.49
2017-11-04T15:22:05.449Z,97498.14
2017-11-04T15:24:32.936Z,97490.23
2017-11-04T15:27:00.508Z,97490.23
2017-11-04T15:29:28.077Z,97485.84
2017-11-04T15:31:55.656Z,97488.70
2017-11-04T15:34:23.172Z,97479.62
2017-11-04T15:36:50.681Z,97489.56
2017-11-04T15:39:18.172Z,97487.28
2017-11-04T15:41:45.681Z,97483.27
2017-11-04T15:44:13.182Z,97486.28
2017-11-04T15:46:40.707Z,97472.54
2017-11-04T15:49:08.209Z,97468.48
2017-11-04T15:51:35.740Z,97481.72
2017-11-04T15:54:03.225Z,97481.19
2017-11-04T15:56:30.741Z,97476.28
2017-11-04T15:58:58.255Z,97484.58
2017-11-04T16:01:25.754Z,97480.69
2017-11-04T16:03:53.310Z,97478.77
2017-11-04T16:06:20.845Z,97482.30
2017-11-04T16:08:48.390Z,97486.05
2017-11-04T16:11:15.900Z,97481.91
2017-11-04T16:13:43.416Z,97484.38
2017-11-04T16:16:10.951Z,97482.71
2017-11-04T16:18:38.458Z,97480.97
2017-11-04T16:21:05.971Z,97487.87
2017-11-04T16:23:33.474Z,97494.78
2017-11-04T16:26:01.002Z,97498.84
2017-11-04T16:28:28.547Z,97494.42
2017-11-04T16:30:56.076Z,97490.37
2017-11-04T16:33:23.610Z,97500.06
2017-11-04T16:35:51.119Z,97497.88
2017-11-04T16:38:18.687Z,97495.55
2017-11-04T16:40:46.206Z,97496.56
2017-11-04T16:43:13.695Z,97506.87
2017-11-04T16:45:42.497Z,97501.52
2017-11-04T16:48:10.010Z,97504.72
2017-11-04T16:50:37.525Z,97513.38
2017-11-04T16:53:05.039Z,97504.83
2017-11-04T16:55:32.539Z,97508.86
2017-11-04T16:58:00.042Z,97506.94
2017-11-04T17:00:27.548Z,97511.90
2017-11-04T17:02:55.070Z,97517.98
2017-11-04T17:05:22.606Z,97513.30
2017-11-04T17:07:50.124Z,97515.06
2017-11-04T17:10:17.686Z,97512.17
2017-11-04T17:12:45.212Z,97515.48
2017-11-04T17:15:13.750Z,97514.00
2017-11-04T17:17:41.275Z,97517.77
2017-11-04T17:20:08.818Z,97512.39
2017-11-04T17:22:36.334Z,97511.59
2017-11-04T17:25:03.842Z,97523.02
2017-11-04T17:27:31.354Z,97519.20
2017-11-04T17:29:58.859Z,97519.44
2017-11-04T17:32:26.370Z,97518.07
2017-11-04T17:34:53.929Z,97519.16
2017-11-04T17:37:21.447Z,97520.92
2017-11-04T17:39:48.983Z,97522.45
2017-11-04T17:42:16.513Z,97519.58
2017-11-04T17:44:44.020Z,97515.87
2017-11-04T17:47:11.552Z,97519.34
2017-11-04T17:49:39.065Z,97513.82
2017-11-04T17:52:06.589Z,97509.84
2017-11-04T17:54:34.099Z,97511.77
2017-11-04T17:57:01.649Z,97515.23
2017-11-04T17:59:29.166Z,97510.70
2017-11-04T18:01:56.705Z,97509.19
2017-11-04T18:04:24.196Z,97504.23
2017-11-04T18:06:51.709Z,97508.78
2017-11-04T18:09:19.206Z,97504.96
2017-11-04T18:11:46.718Z,97498.75
2017-11-04T18:14:14.245Z,97505.27
2017-11-04T18:16:41.738Z,97508.31
2017-11-04T18:19:09.269Z,97498.23
2017-11-04T18:21:36.771Z,97499.41
2017-11-04T18:24:04.294Z,97501.50
2017-11-04T18:26:31.832Z,97504.59
2017-11-04T18:28:59.480Z,97508.48
2017-11-04T18:31:27.004Z,97510.94
2017-11-04T18:33:54.513Z,97501.81
2017-11-04T18:36:22.025Z,97507.58
2017-11-04T18:38:49.554Z,97509.13
2017-11-04T18:41:17.061Z,97503.93
2017-11-04T18:43:44.622Z,97507.24
2017-11-04T18:46:12.144Z,97500.83
2017-11-04T18:48:39.738Z,97509.09
2017-11-04T18:51:07.252Z,97502.70
2017-11-04T18:53:34.758Z,97503.59
2017-11-04T18:56:02.263Z,97503.65
2017-11-04T18:58:29.759Z,97502.24
2017-11-04T19:00:57.265Z,97505.17
2017-11-04T19:03:24.762Z,97502.75
2017-11-04T19:05:52.277Z,97501.20
2017-11-04T19:08:19.783Z,97500.25
2017-11-04T19:10:47.312Z,97503.52
2017-11-04T19:13:15.052Z,97496.47
2017-11-04T19:15:42.583Z,97503.05
2017-11-04T19:18:10.117Z,97497.93
2017-11-04T19:20:37.649Z,97498.56
2017-11-04T19:23:05.173Z,97496.18
2017-11-04T19:25:32.713Z,97490.98
2017-11-04T19:28:00.238Z,97489.70
2017-11-04T19:30:27.875Z,97489.97
2017-11-04T19:32:55.434Z,97493.02
2017-11-04T19:35:22.947Z,97492.77
2017-11-04T19:37:50.483Z,97491.02
2017-11-04T19:40:17.984Z,97483.77
2017-11-04T19:42:45.515Z,97483.33
2017-11-04T19:45:13.028Z,97481.53
2017-11-04T19:47:40.652Z,97484.91
2017-11-04T19:50:08.210Z,97484.16
2017-11-04T19:52:35.737Z,97480.55
2017-11-04T19:55:03.250Z,97479.45
2017-11-04T19:57:30.754Z,97477.30
2017-11-04T19:59:58.273Z,97469.86
2017-11-04T20:02:25.798Z,97469.99
2017-11-04T20:04:53.331Z,97472.05
2017-11-04T20:07:20.878Z,97472.55
2017-11-04T20:09:48.397Z,97483.01
2017-11-04T20:12:15.945Z,97480.89
2017-11-04T20:14:43.487Z,97480.83
2017-11-04T20:17:11.003Z,97486.71
2017-11-04T20:19:38.530Z,97483.53
2017-11-04T20:22:06.056Z,97479.70
2017-11-04T20:24:33.587Z,97481.59
2017-11-04T20:27:01.095Z,97482.90
2017-11-04T20:29:28.620Z,97489.09
2017-11-04T20:31:56.138Z,97484.64
2017-11-04T20:34:23.660Z,97485.53
2017-11-04T20:36:51.162Z,97483.66
2017-11-04T20:39:18.676Z,97486.69
2017-11-04T20:41:46.196Z,97482.25
2017-11-04T20:44:13.818Z,97474.39
2017-11-04T20:46:41.354Z,97484.56
2017-11-04T20:49:08.870Z,97480.21
2017-11-04T20:51:36.377Z,97473.66
2017-11-04T20:54:03.876Z,97473.56
2017-11-04T20:56:31.414Z,97470.53
2017-11-04T20:58:59.028Z,97471.08
2017-11-04T21:01:26.558Z,97468.48
2017-11-04T21:03:54.084Z,97465.77
2017-11-04T21:06:21.634Z,97464.42
2017-11-04T21:08:49.168Z,97456.34
2017-11-04T21:11:16.692Z,97457.73
2017-11-04T21:13:44.229Z,97461.20
2017-11-04T21:16:11.738Z,97454.19
2017-11-04T21:18:39.265Z,97456.29
2017-11-04T21:21:06.927Z,97453.19
2017-11-04T21:23:34.446Z,97452.00
2017-11-04T21:26:01.964Z,97446.73
2017-11-04T21:28:29.499Z,97437.44
2017-11-04T21:30:57.029Z,97435.52
2017-11-04T21:33:24.589Z,97437.09
2017-11-04T21:35:52.110Z,97440.91
2017-11-04T21:38:19.668Z,97434.97
2017-11-04T21:40:47.198Z,97438.57
2017-11-04T21:43:14.713Z,97436.86
2017-11-04T21:45:42.226Z,97441.58
2017-11-04T21:48:09.733Z,97429.52
2017-11-04T21:50:37.260Z,97428.66
2017-11-04T21:53:04.810Z,97422.48
2017-11-04T21:55:32.325Z,97429.96
2017-11-04T21:57:59.848Z,97422.95
2017-11-04T22:00:27.387Z,97413.34
2017-11-04T22:02:54.899Z,97412.17
2017-11-04T22:05:22.403Z,97413.53
2017-11-04T22:07:49.968Z,97406.30
2017-11-04T22:10:17.464Z,97407.48
2017-11-04T22:12:45.009Z,97411.05
2017-11-04T22:15:12.669Z,97408.18
2017-11-04T22:17:40.277Z,97404.61
2017-11-04T22:20:07.788Z,97409.30
2017-11-04T22:22:35.292Z,97397.14
2017-11-04T22:25:02.806Z,97399.69
2017-11-04T22:27:30.321Z,97403.10
2017-11-04T22:29:57.833Z,97387.92
2017-11-04T22:32:25.386Z,97387.80
2017-11-04T22:34:52.935Z,97385.35
2017-11-04T22:37:20.439Z,97385.59
2017-11-04T22:39:47.955Z,97379.30
2017-11-04T22:42:15.461Z,97389.34
2017-11-04T22:44:42.975Z,97384.21
2017-11-04T22:47:10.496Z,97375.05
2017-11-04T22:49:38.110Z,97384.16
2017-11-04T22:52:05.605Z,97377.20
2017-11-04T22:54:33.112Z,97375.97
2017-11-04T22:57:00.631Z,97367.48
2017-11-04T22:59:28.130Z,97358.05
2017-11-04T23:01:55.637Z,97351.73
2017-11-04T23:04:23.134Z,97351.52
2017-11-04T23:06:50.662Z,97346.04
2017-11-04T23:09:18.208Z,97340.50
2017-11-04T23:11:45.739Z,97341.71
2017-11-04T23:14:13.255Z,97338.67
2017-11-04T23:16:40.767Z,97330.80
2017-11-04T23:19:08.294Z,97325.47
2017-11-04T23:21:35.803Z,97322.62
2017-11-04T23:24:03.289Z,97314.22
2017-11-04T23:26:30.729Z,97309.19
2017-11-04T23:28:58.188Z,97298.25
2017-11-04T23:31:25.664Z,97300.50
2017-11-04T23:33:53.142Z,97297.25
2017-11-04T23:36:20.615Z,97293.64
2017-11-04T23:38:48.098Z,97284.38
2017-11-04T23:41:15.548Z,97283.48
2017-11-04T23:43:43.014Z,97277.31
2017-11-04T23:46:10.473Z,97270.86
2017-11-04T23:48:37.965Z,97269.77
2017-11-04T23:51:05.430Z,97266.16
2017-11-04T23:53:32.875Z,97267.08
2017-11-04T23:56:00.383Z,97272.67
2017-11-04T23:58:27.883Z,97267.05
